createdAt,value
2023-07-18T00:01:32.973Z,15.22
2023-07-18T00:03:59.512Z,15.26
2023-07-18T00:06:26.008Z,15.18
2023-07-18T00:08:52.484Z,15.15
2023-07-18T00:11:19.339Z,15.10
2023-07-18T00:13:46.035Z,15.10
2023-07-18T00:16:12.996Z,15.12
2023-07-18T00:18:39.502Z,14.95
2023-07-18T00:21:06.602Z,14.82
2023-07-18T00:23:33.065Z,14.68
2023-07-18T00:25:59.495Z,14.64
2023-07-18T00:28:26.339Z,14.84
2023-07-18T00:30:52.841Z,14.90
2023-07-18T00:33:19.256Z,14.79
2023-07-18T00:35:45.680Z,14.71
2023-07-18T00:38:12.868Z,14.84
2023-07-18T00:46:10.833Z,14.77
2023-07-18T00:48:37.783Z,14.60
2023-07-18T00:51:08.460Z,14.54
2023-07-18T00:53:38.236Z,14.49
2023-07-18T00:56:05.678Z,14.43
2023-07-18T00:58:32.184Z,14.58
2023-07-18T01:01:00.164Z,14.77
2023-07-18T01:03:26.769Z,14.87
2023-07-18T01:05:55.144Z,14.94
2023-07-18T01:08:21.552Z,14.96
2023-07-18T01:10:48.092Z,14.95
2023-07-18T01:13:14.444Z,14.91
2023-07-18T01:15:40.786Z,14.94
2023-07-18T01:18:10.156Z,14.91
2023-07-18T01:20:37.598Z,14.90
2023-07-18T01:23:07.470Z,14.90
2023-07-18T01:25:35.127Z,14.89
2023-07-18T01:28:01.860Z,14.74
2023-07-18T01:30:29.098Z,14.62
2023-07-18T01:32:55.980Z,14.50
2023-07-18T01:35:26.279Z,14.33
2023-07-18T01:37:54.376Z,14.19
2023-07-18T01:40:21.645Z,14.04
2023-07-18T01:42:51.307Z,13.91
2023-07-18T01:45:19.334Z,14.05
2023-07-18T01:47:47.159Z,14.06
2023-07-18T01:50:14.022Z,14.11
2023-07-18T01:52:40.792Z,13.90
2023-07-18T01:55:07.748Z,13.73
2023-07-18T01:57:36.849Z,13.55
2023-07-18T02:00:04.636Z,13.64
2023-07-18T02:02:31.240Z,13.81
2023-07-18T02:04:58.268Z,13.82
2023-07-18T02:07:24.682Z,13.65
2023-07-18T02:09:51.030Z,13.47
2023-07-18T02:12:17.565Z,13.58
2023-07-18T02:14:44.275Z,13.69
2023-07-18T02:17:10.742Z,13.75
2023-07-18T02:19:37.177Z,13.74
2023-07-18T02:22:04.633Z,13.68
2023-07-18T02:24:31.366Z,13.67
2023-07-18T02:26:59.186Z,13.60
2023-07-18T02:29:26.254Z,13.57
2023-07-18T02:31:52.625Z,13.54
2023-07-18T02:34:19.018Z,13.56
2023-07-18T02:36:45.363Z,13.41
2023-07-18T02:39:11.890Z,13.36
2023-07-18T02:41:38.713Z,13.25
2023-07-18T02:44:05.794Z,13.20
2023-07-18T02:46:32.538Z,13.20
2023-07-18T02:48:59.011Z,13.36
2023-07-18T02:51:25.365Z,13.41
2023-07-18T02:53:53.154Z,13.40
2023-07-18T02:56:19.543Z,13.41
2023-07-18T02:58:45.872Z,13.42
2023-07-18T03:01:13.060Z,13.42
2023-07-18T03:03:39.740Z,13.33
2023-07-18T03:06:06.268Z,13.28
2023-07-18T03:08:35.262Z,13.23
2023-07-18T03:11:02.525Z,13.24
2023-07-18T03:13:28.973Z,13.22
2023-07-18T03:15:56.138Z,13.07
2023-07-18T03:18:23.020Z,13.05
2023-07-18T03:20:50.056Z,12.95
2023-07-18T03:23:18.577Z,13.03
2023-07-18T03:25:45.007Z,13.06
2023-07-18T03:28:11.371Z,13.00
2023-07-18T03:30:37.721Z,13.05
2023-07-18T03:33:04.355Z,13.07
2023-07-18T03:35:30.716Z,13.06
2023-07-18T03:37:57.033Z,12.96
2023-07-18T03:40:23.459Z,12.94
2023-07-18T03:42:52.058Z,12.95
2023-07-18T03:45:18.495Z,12.96
2023-07-18T03:47:45.796Z,12.96
2023-07-18T03:50:14.071Z,13.04
2023-07-18T03:52:41.003Z,13.09
2023-07-18T03:55:08.004Z,13.02
2023-07-18T03:57:35.285Z,12.96
2023-07-18T04:00:04.858Z,12.92
2023-07-18T04:02:31.309Z,12.86
2023-07-18T04:04:57.724Z,12.82
2023-07-18T04:07:25.635Z,12.78
2023-07-18T04:09:52.046Z,12.76
2023-07-18T04:12:18.478Z,12.79
2023-07-18T04:14:44.824Z,12.86
2023-07-18T04:17:11.239Z,12.96
2023-07-18T04:19:37.645Z,12.95
2023-07-18T04:22:04.921Z,13.06
2023-07-18T04:24:32.096Z,13.19
2023-07-18T04:26:58.516Z,13.28
2023-07-18T04:29:25.477Z,13.31
2023-07-18T04:31:52.587Z,13.45
2023-07-18T04:34:20.004Z,13.60
2023-07-18T04:36:46.460Z,13.71
2023-07-18T04:39:12.882Z,13.74
2023-07-18T04:41:53.499Z,13.75
2023-07-18T04:44:21.899Z,13.81
2023-07-18T04:46:48.466Z,13.91
2023-07-18T04:49:14.860Z,14.00
2023-07-18T04:51:41.334Z,14.00
2023-07-18T04:54:08.034Z,14.09
2023-07-18T04:56:34.397Z,14.10
2023-07-18T04:59:00.775Z,14.16
2023-07-18T05:01:29.245Z,14.20
2023-07-18T05:03:58.644Z,14.25
2023-07-18T05:06:25.834Z,14.33
2023-07-18T05:08:52.164Z,14.38
2023-07-18T05:11:18.980Z,14.45
2023-07-18T05:13:45.619Z,14.52
2023-07-18T05:16:11.978Z,14.62
2023-07-18T05:18:38.359Z,14.70
2023-07-18T05:21:04.686Z,14.81
2023-07-18T05:23:31.120Z,14.91
2023-07-18T05:25:58.434Z,15.07
2023-07-18T05:28:24.918Z,15.19
2023-07-18T05:30:51.338Z,15.26
2023-07-18T05:33:17.703Z,15.38
2023-07-18T05:35:44.101Z,15.47
2023-07-18T05:38:10.555Z,15.55
2023-07-18T05:40:36.938Z,15.65
2023-07-18T05:43:03.345Z,15.80
2023-07-18T05:45:29.755Z,15.87
2023-07-18T05:47:56.182Z,16.05
2023-07-18T05:50:22.740Z,16.17
2023-07-18T05:52:49.687Z,16.43
2023-07-18T05:55:16.139Z,16.53
2023-07-18T05:57:42.719Z,16.70
2023-07-18T06:00:11.301Z,17.21
2023-07-18T06:02:38.083Z,17.29
2023-07-18T06:05:06.072Z,17.37
2023-07-18T06:07:32.472Z,17.42
2023-07-18T06:09:59.084Z,17.44
2023-07-18T06:12:26.545Z,17.47
2023-07-18T06:14:54.109Z,17.50
2023-07-18T06:17:20.504Z,17.58
2023-07-18T06:19:47.561Z,17.67
2023-07-18T06:22:14.462Z,17.79
2023-07-18T06:24:40.978Z,17.99
2023-07-18T06:27:07.416Z,18.25
2023-07-18T06:29:33.803Z,18.49
2023-07-18T06:32:01.948Z,18.72
2023-07-18T06:34:31.710Z,18.77
2023-07-18T06:37:03.229Z,18.84
2023-07-18T06:39:30.502Z,18.92
2023-07-18T06:41:58.851Z,19.00
2023-07-18T06:44:25.804Z,19.07
2023-07-18T06:46:52.235Z,19.19
2023-07-18T06:49:19.850Z,19.27
2023-07-18T06:51:46.241Z,19.35
2023-07-18T06:54:12.618Z,19.41
2023-07-18T06:56:40.272Z,19.50
2023-07-18T06:59:07.728Z,19.66
2023-07-18T07:01:34.516Z,19.74
2023-07-18T07:04:02.255Z,19.78
2023-07-18T07:06:28.682Z,20.29
2023-07-18T07:08:55.083Z,22.21
2023-07-18T07:11:21.709Z,24.56
2023-07-18T07:13:48.501Z,27.00
2023-07-18T07:16:15.085Z,28.46
2023-07-18T07:18:41.493Z,29.95
2023-07-18T07:21:07.970Z,30.99
2023-07-18T07:23:34.417Z,31.73
2023-07-18T07:26:01.194Z,31.91
2023-07-18T07:28:27.586Z,32.35
2023-07-18T07:30:54.158Z,32.13
2023-07-18T07:33:20.608Z,32.16
2023-07-18T07:35:47.761Z,32.27
2023-07-18T07:38:15.967Z,31.95
2023-07-18T07:40:42.503Z,32.01
2023-07-18T07:43:08.860Z,32.01
2023-07-18T07:45:35.231Z,29.99
2023-07-18T07:48:01.739Z,30.37
2023-07-18T07:50:28.156Z,30.82
2023-07-18T07:52:54.524Z,31.03
2023-07-18T07:55:20.900Z,30.97
2023-07-18T07:57:47.588Z,31.21
2023-07-18T08:00:14.508Z,30.33
2023-07-18T08:02:41.010Z,29.92
2023-07-18T08:05:09.840Z,29.84
2023-07-18T08:07:36.363Z,30.18
2023-07-18T08:10:02.732Z,30.35
2023-07-18T08:12:29.152Z,29.83
2023-07-18T08:14:55.611Z,29.94
2023-07-18T08:17:21.998Z,29.80
2023-07-18T08:19:48.428Z,29.49
2023-07-18T08:22:14.840Z,29.11
2023-07-18T08:24:41.177Z,29.10
2023-07-18T08:27:07.875Z,28.68
2023-07-18T08:29:34.809Z,28.54
2023-07-18T08:32:01.675Z,28.40
2023-07-18T08:34:28.368Z,27.86
2023-07-18T08:36:54.932Z,26.29
2023-07-18T08:39:21.299Z,26.38
2023-07-18T08:41:52.571Z,26.60
2023-07-18T08:44:22.655Z,26.60
2023-07-18T08:46:49.431Z,26.61
2023-07-18T08:49:19.452Z,26.60
2023-07-18T08:51:46.505Z,26.56
2023-07-18T08:54:17.461Z,26.81
2023-07-18T08:56:45.099Z,27.23
2023-07-18T08:59:12.212Z,27.23
2023-07-18T09:01:49.023Z,27.35
2023-07-18T09:04:16.439Z,27.32
2023-07-18T09:06:50.674Z,27.30
2023-07-18T09:09:18.874Z,27.30
2023-07-18T09:12:00.635Z,27.30
2023-07-18T09:14:31.852Z,26.88
2023-07-18T09:17:01.455Z,26.70
2023-07-18T09:19:38.353Z,26.73
2023-07-18T09:22:09.772Z,26.79
2023-07-18T09:24:37.003Z,26.71
2023-07-18T09:27:08.126Z,26.70
2023-07-18T09:29:35.352Z,26.88
2023-07-18T09:32:02.326Z,26.88
2023-07-18T09:34:29.092Z,26.94
2023-07-18T09:37:00.863Z,27.05
2023-07-18T09:39:29.112Z,27.13
2023-07-18T09:41:56.988Z,27.27
2023-07-18T09:44:33.266Z,27.33
2023-07-18T09:47:01.736Z,27.50
2023-07-18T09:49:33.107Z,27.50
2023-07-18T09:52:04.840Z,27.58
2023-07-18T09:54:32.666Z,27.63
2023-07-18T09:57:07.164Z,27.66
2023-07-18T09:59:38.549Z,27.73
2023-07-18T10:02:07.291Z,27.84
2023-07-18T10:04:34.983Z,27.95
2023-07-18T10:07:03.318Z,28.00
2023-07-18T10:09:33.850Z,28.00
2023-07-18T10:12:00.215Z,27.81
2023-07-18T10:14:31.085Z,27.68
2023-07-18T10:17:06.682Z,27.91
2023-07-18T10:19:48.951Z,27.99
2023-07-18T10:22:32.156Z,28.19
2023-07-18T10:25:07.010Z,28.50
2023-07-18T10:27:42.096Z,28.59
2023-07-18T10:30:13.851Z,28.97
2023-07-18T10:32:42.441Z,29.24
2023-07-18T10:35:14.301Z,29.30
2023-07-18T10:37:53.427Z,29.34
2023-07-18T10:40:40.241Z,29.48
2023-07-18T10:43:11.642Z,29.00
2023-07-18T10:45:39.784Z,29.10
2023-07-18T10:48:17.320Z,29.20
2023-07-18T10:50:45.449Z,28.68
2023-07-18T10:53:18.664Z,28.65
2023-07-18T10:55:46.796Z,28.65
2023-07-18T10:58:21.485Z,28.65
2023-07-18T11:00:49.746Z,28.14
2023-07-18T11:03:24.086Z,27.51
2023-07-18T11:05:51.861Z,27.46
2023-07-18T11:08:29.272Z,27.28
2023-07-18T11:11:00.049Z,26.93
2023-07-18T11:13:37.755Z,27.45
2023-07-18T11:16:13.071Z,27.61
2023-07-18T11:18:43.156Z,27.58
2023-07-18T11:21:10.179Z,27.83
2023-07-18T11:23:37.668Z,27.85
2023-07-18T11:26:14.505Z,27.62
2023-07-18T11:28:42.261Z,27.78
2023-07-18T11:31:40.850Z,28.22
2023-07-18T11:34:08.698Z,28.50
2023-07-18T11:36:38.942Z,28.62
2023-07-18T11:39:23.074Z,28.64
2023-07-18T11:41:52.512Z,28.84
2023-07-18T11:44:26.803Z,28.95
2023-07-18T11:46:53.860Z,29.00
2023-07-18T11:49:33.939Z,28.96
2023-07-18T11:52:02.533Z,28.92
2023-07-18T11:54:28.931Z,28.70
2023-07-18T11:56:55.325Z,28.76
2023-07-18T11:59:22.797Z,28.36
2023-07-18T12:01:49.274Z,28.27
2023-07-18T12:04:16.042Z,28.14
2023-07-18T12:06:42.542Z,28.22
2023-07-18T12:09:09.138Z,28.55
2023-07-18T12:11:35.509Z,27.96
2023-07-18T12:14:03.473Z,27.63
2023-07-18T12:16:30.035Z,27.58
2023-07-18T12:18:56.514Z,27.98
2023-07-18T12:21:22.988Z,28.27
2023-07-18T12:23:49.344Z,28.24
2023-07-18T12:26:15.747Z,28.54
2023-07-18T12:28:42.135Z,28.65
2023-07-18T12:31:09.155Z,29.04
2023-07-18T12:33:35.670Z,29.37
2023-07-18T12:36:02.044Z,29.47
2023-07-18T12:38:30.077Z,29.52
2023-07-18T12:40:56.659Z,29.35
2023-07-18T12:43:23.161Z,29.33
2023-07-18T12:45:49.541Z,29.48
2023-07-18T12:48:16.153Z,29.57
2023-07-18T12:50:44.095Z,29.41
2023-07-18T12:53:10.516Z,29.46
2023-07-18T12:55:36.970Z,29.43
2023-07-18T12:58:03.393Z,29.52
2023-07-18T13:00:29.795Z,29.43
2023-07-18T13:02:56.949Z,29.51
2023-07-18T13:05:23.554Z,29.46
2023-07-18T13:07:50.133Z,29.61
2023-07-18T13:10:16.550Z,29.75
2023-07-18T13:12:42.933Z,29.78
2023-07-18T13:15:09.546Z,29.80
2023-07-18T13:17:36.043Z,30.03
2023-07-18T13:20:02.577Z,29.93
2023-07-18T13:22:29.008Z,29.87
2023-07-18T13:24:55.438Z,29.93
2023-07-18T13:27:21.771Z,29.52
2023-07-18T13:29:48.341Z,29.48
2023-07-18T13:32:15.089Z,29.13
2023-07-18T13:34:41.524Z,28.87
2023-07-18T13:37:07.964Z,28.85
2023-07-18T13:39:34.404Z,28.97
2023-07-18T13:42:00.815Z,29.05
2023-07-18T13:44:27.283Z,29.34
2023-07-18T13:46:53.799Z,29.64
2023-07-18T13:49:20.222Z,29.54
2023-07-18T13:51:47.346Z,29.78
2023-07-18T13:54:13.683Z,29.77
2023-07-18T13:56:40.037Z,29.80
2023-07-18T13:59:06.408Z,29.75
2023-07-18T14:01:32.897Z,29.24
2023-07-18T14:03:59.480Z,29.05
2023-07-18T14:06:25.914Z,29.18
2023-07-18T14:08:52.861Z,29.46
2023-07-18T14:11:19.283Z,29.58
2023-07-18T14:13:47.254Z,29.57
2023-07-18T14:16:13.742Z,29.57
2023-07-18T14:18:40.146Z,29.78
2023-07-18T14:21:06.568Z,29.98
2023-07-18T14:23:33.064Z,30.11
2023-07-18T14:25:59.460Z,30.11
2023-07-18T14:28:25.817Z,30.21
2023-07-18T14:30:52.382Z,30.32
2023-07-18T14:33:19.322Z,29.98
2023-07-18T14:35:45.870Z,30.03
2023-07-18T14:38:12.349Z,30.28
2023-07-18T14:40:39.107Z,30.48
2023-07-18T14:43:10.247Z,30.58
2023-07-18T14:45:37.790Z,30.64
2023-07-18T14:48:04.707Z,30.74
2023-07-18T14:50:32.284Z,30.73
2023-07-18T14:52:58.744Z,30.68
2023-07-18T14:55:25.133Z,30.70
2023-07-18T14:57:51.675Z,30.84
2023-07-18T15:00:19.632Z,30.80
2023-07-18T15:02:48.562Z,30.47
2023-07-18T15:05:15.902Z,30.37
2023-07-18T15:07:42.258Z,30.28
2023-07-18T15:10:09.315Z,30.33
2023-07-18T15:12:39.231Z,30.32
2023-07-18T15:15:06.264Z,30.24
2023-07-18T15:17:45.804Z,30.07
2023-07-18T15:20:13.745Z,30.05
2023-07-18T15:22:41.559Z,30.15
2023-07-18T15:25:10.301Z,30.25
2023-07-18T15:27:37.989Z,30.65
2023-07-18T15:30:07.858Z,31.19
2023-07-18T15:32:36.427Z,31.46
2023-07-18T15:35:04.881Z,31.67
2023-07-18T15:37:32.396Z,32.01
2023-07-18T15:39:59.102Z,32.20
2023-07-18T15:42:25.725Z,32.06
2023-07-18T15:44:52.129Z,31.86
2023-07-18T15:47:19.762Z,31.76
2023-07-18T15:49:46.497Z,31.51
2023-07-18T15:52:12.835Z,31.47
2023-07-18T15:54:39.191Z,31.47
2023-07-18T15:57:07.529Z,31.46
2023-07-18T15:59:34.084Z,30.98
2023-07-18T16:02:00.504Z,30.65
2023-07-18T16:04:26.932Z,30.51
2023-07-18T16:06:53.449Z,30.44
2023-07-18T16:09:25.582Z,30.58
2023-07-18T16:11:51.972Z,30.23
2023-07-18T16:14:18.610Z,30.26
2023-07-18T16:16:45.523Z,30.00
2023-07-18T16:19:11.930Z,30.01
2023-07-18T16:21:40.128Z,30.27
2023-07-18T16:24:07.327Z,30.22
2023-07-18T16:26:36.489Z,30.11
2023-07-18T16:29:03.408Z,30.00
2023-07-18T16:31:31.373Z,30.00
2023-07-18T16:33:57.862Z,30.16
2023-07-18T16:36:25.259Z,30.28
2023-07-18T16:38:52.794Z,30.34
2023-07-18T16:41:19.632Z,30.25
2023-07-18T16:43:46.343Z,30.17
2023-07-18T16:46:12.798Z,29.95
2023-07-18T16:48:39.168Z,29.77
2023-07-18T16:51:05.573Z,29.83
2023-07-18T16:53:31.948Z,29.89
2023-07-18T16:55:58.296Z,29.77
2023-07-18T16:58:26.102Z,29.83
2023-07-18T17:00:52.500Z,29.87
2023-07-18T17:03:20.781Z,29.91
2023-07-18T17:05:47.343Z,29.81
2023-07-18T17:08:13.762Z,29.77
2023-07-18T17:10:40.138Z,29.74
2023-07-18T17:13:07.277Z,29.69
2023-07-18T17:15:33.813Z,29.72
2023-07-18T17:18:00.264Z,29.67
2023-07-18T17:20:26.742Z,29.69
2023-07-18T17:22:54.373Z,29.59
2023-07-18T17:25:21.242Z,29.54
2023-07-18T17:27:47.741Z,29.43
2023-07-18T17:30:15.127Z,29.25
2023-07-18T17:32:41.636Z,29.09
2023-07-18T17:35:08.490Z,28.85
2023-07-18T17:37:34.842Z,28.73
2023-07-18T17:40:02.003Z,28.75
2023-07-18T17:42:28.555Z,28.77
2023-07-18T17:44:56.587Z,28.75
2023-07-18T17:47:23.142Z,28.62
2023-07-18T17:49:49.516Z,28.73
2023-07-18T17:52:15.882Z,28.89
2023-07-18T17:54:42.543Z,29.19
2023-07-18T17:57:08.880Z,29.43
2023-07-18T17:59:35.271Z,29.68
2023-07-18T18:02:01.718Z,29.72
2023-07-18T18:04:28.114Z,29.84
2023-07-18T18:06:54.492Z,29.89
2023-07-18T18:09:21.193Z,29.87
2023-07-18T18:11:47.569Z,29.93
2023-07-18T18:14:15.188Z,29.97
2023-07-18T18:16:41.692Z,29.95
2023-07-18T18:19:08.073Z,29.88
2023-07-18T18:21:34.491Z,29.89
2023-07-18T18:24:00.878Z,29.84
2023-07-18T18:26:27.294Z,29.56
2023-07-18T18:28:54.160Z,29.14
2023-07-18T18:31:20.838Z,28.69
2023-07-18T18:33:47.394Z,28.20
2023-07-18T18:36:13.932Z,27.87
2023-07-18T18:38:40.358Z,27.50
2023-07-18T18:41:06.966Z,27.20
2023-07-18T18:43:34.123Z,26.88
2023-07-18T18:46:00.681Z,26.60
2023-07-18T18:48:27.197Z,26.30
2023-07-18T18:50:53.600Z,26.10
2023-07-18T18:53:22.042Z,25.91
2023-07-18T18:55:48.438Z,25.71
2023-07-18T18:58:14.851Z,25.56
2023-07-18T19:00:41.274Z,25.46
2023-07-18T19:03:07.739Z,25.34
2023-07-18T19:05:34.262Z,25.20
2023-07-18T19:08:00.643Z,25.16
2023-07-18T19:10:27.628Z,25.05
2023-07-18T19:12:54.328Z,24.88
2023-07-18T19:15:20.902Z,24.66
2023-07-18T19:17:47.363Z,24.50
2023-07-18T19:20:13.869Z,24.40
2023-07-18T19:22:40.384Z,24.20
2023-07-18T19:25:08.908Z,24.13
2023-07-18T19:27:36.413Z,24.01
2023-07-18T19:30:06.672Z,23.99
2023-07-18T19:32:33.504Z,23.86
2023-07-18T19:35:00.741Z,23.68
2023-07-18T19:37:27.146Z,23.59
2023-07-18T19:39:53.621Z,23.61
2023-07-18T19:42:19.963Z,23.51
2023-07-18T19:44:48.228Z,23.30
2023-07-18T19:47:15.368Z,23.07
2023-07-18T19:49:41.851Z,22.91
2023-07-18T19:52:08.366Z,22.75
2023-07-18T19:54:34.920Z,22.64
2023-07-18T19:57:01.298Z,22.37
2023-07-18T19:59:28.129Z,22.35
2023-07-18T20:01:54.610Z,22.16
2023-07-18T20:04:21.694Z,21.99
2023-07-18T20:06:48.085Z,21.99
2023-07-18T20:09:14.521Z,21.94
2023-07-18T20:11:40.929Z,21.89
2023-07-18T20:14:07.355Z,21.71
2023-07-18T20:16:34.049Z,21.65
2023-07-18T20:19:02.989Z,21.50
2023-07-18T20:21:30.200Z,21.20
2023-07-18T20:23:56.924Z,20.97
2023-07-18T20:26:23.396Z,20.90
2023-07-18T20:28:49.823Z,20.91
2023-07-18T20:31:16.780Z,20.91
2023-07-18T20:33:43.566Z,20.86
2023-07-18T20:36:10.274Z,20.82
2023-07-18T20:38:36.653Z,20.81
2023-07-18T20:41:03.059Z,20.75
2023-07-18T20:43:29.421Z,20.50
2023-07-18T20:45:59.618Z,20.35
2023-07-18T20:48:27.557Z,20.21
2023-07-18T20:50:53.961Z,20.15
2023-07-18T20:53:20.283Z,20.16
2023-07-18T20:55:46.646Z,20.32
2023-07-18T20:58:13.772Z,20.38
2023-07-18T21:00:40.154Z,20.44
2023-07-18T21:03:06.632Z,20.46
2023-07-18T21:05:33.336Z,20.39
2023-07-18T21:08:01.585Z,20.31
2023-07-18T21:10:28.002Z,20.13
2023-07-18T21:12:54.444Z,19.93
2023-07-18T21:15:20.868Z,19.89
2023-07-18T21:17:47.304Z,19.94
2023-07-18T21:20:13.822Z,19.86
2023-07-18T21:22:40.241Z,19.74
2023-07-18T21:25:07.042Z,19.53
2023-07-18T21:27:33.639Z,19.36
2023-07-18T21:30:00.083Z,19.38
2023-07-18T21:32:26.532Z,19.56
2023-07-18T21:34:52.984Z,19.50
2023-07-18T21:37:19.355Z,19.35
2023-07-18T21:39:45.766Z,19.29
2023-07-18T21:42:12.189Z,19.21
2023-07-18T21:44:38.657Z,19.33
2023-07-18T21:47:05.265Z,19.42
2023-07-18T21:49:31.658Z,19.52
2023-07-18T21:51:58.062Z,19.57
2023-07-18T21:54:24.520Z,19.69
2023-07-18T21:56:52.108Z,19.60
2023-07-18T21:59:18.502Z,19.46
2023-07-18T22:01:46.014Z,19.37
2023-07-18T22:04:12.458Z,19.33
2023-07-18T22:06:38.802Z,19.35
2023-07-18T22:09:06.880Z,19.39
2023-07-18T22:11:35.484Z,19.45
2023-07-18T22:14:02.063Z,19.69
2023-07-18T22:16:28.487Z,19.67
2023-07-18T22:18:54.868Z,19.57
2023-07-18T22:21:21.440Z,19.53
2023-07-18T22:23:48.062Z,19.47
2023-07-18T22:26:15.018Z,19.46
2023-07-18T22:28:42.657Z,19.49
2023-07-18T22:31:11.443Z,19.48
2023-07-18T22:33:38.046Z,19.53
2023-07-18T22:36:04.650Z,19.64
2023-07-18T22:38:31.042Z,19.64
2023-07-18T22:40:58.535Z,19.74
2023-07-18T22:43:24.902Z,19.90
2023-07-18T22:45:51.435Z,19.98
2023-07-18T22:48:22.390Z,20.01
2023-07-18T22:50:52.057Z,19.96
2023-07-18T22:53:19.470Z,19.91
2023-07-18T22:55:49.230Z,19.91
2023-07-18T22:58:17.453Z,19.94
2023-07-18T23:00:43.894Z,19.92
2023-07-18T23:03:10.646Z,19.88
2023-07-18T23:05:37.131Z,19.77
2023-07-18T23:08:05.435Z,19.62
2023-07-18T23:10:32.333Z,19.47
2023-07-18T23:12:59.513Z,19.31
2023-07-18T23:15:25.910Z,19.15
2023-07-18T23:17:52.265Z,19.04
2023-07-18T23:20:18.632Z,18.95
2023-07-18T23:22:44.985Z,18.90
2023-07-18T23:25:11.413Z,18.96
2023-07-18T23:27:37.772Z,19.18
2023-07-18T23:30:04.793Z,19.22
2023-07-18T23:32:31.359Z,19.32
2023-07-18T23:34:58.318Z,19.34
2023-07-18T23:37:24.710Z,19.29
2023-07-18T23:39:53.058Z,19.33
2023-07-18T23:42:19.510Z,19.28
2023-07-18T23:44:45.881Z,19.24
2023-07-18T23:47:14.389Z,19.24
2023-07-18T23:49:40.747Z,19.16
2023-07-18T23:52:07.463Z,19.00
2023-07-18T23:54:33.832Z,18.78
2023-07-18T23:57:00.435Z,18.59
2023-07-18T23:59:27.666Z,18.39
